Flight Track Log - Related Links

Times and Time Zones

All times are in EST time to prevent confusion due to time zone crossing. See the SWA2523 flight status page for this flight to view local times or setup timezone preferences in your user account.

Time Position Orientation Groundspeed Altitude Reporting Facility
EST Latitude Longitude Course Direction KTS MPH feet Rate Location/Type
Thu 09:30:42 AM 42.9500 -71.4333 323° Northwest 150 173 1,100  Level KA90
Thu 09:31:26 AM 42.9800 -71.4644 323° Northwest 169 194 2,500 1,833 Climbing Boston Center
Thu 09:32:30 AM 43.0319 -71.4600 North 223 257 4,400 2,115 Climbing Boston Center
Thu 09:33:28 AM 43.0394 -71.3633 84° East 257 296 6,800 2,723 Climbing Boston Center
Thu 09:34:29 AM 43.0486 -71.2464 84° East 309 356 9,800 2,274 Climbing Boston Center
Thu 09:35:32 AM 43.0597 -71.1164 83° East 349 402 11,500 1,790 Climbing Boston Center
Thu 09:36:33 AM 43.0556 -70.9628 92° East 412 474 13,500 2,331 Climbing Boston Center
Thu 09:37:33 AM 42.9672 -70.8956 151° Southeast 372 428 16,200 2,311 Climbing Boston Center
Thu 09:38:35 AM 42.8744 -70.9369 198° South 351 404 18,200 2,400 Climbing Boston Center
Thu 09:39:33 AM 42.7867 -70.9778 199° South 349 402 21,000 2,571 Climbing Boston Center
Thu 09:40:34 AM 42.6914 -71.0233 199° South 360 414 23,300 1,820 Climbing Boston Center
Thu 09:41:35 AM 42.5992 -71.0831 205° Southwest 369 425 24,700 1,574 Climbing Boston Center
Thu 09:42:36 AM 42.5158 -71.1700 218° Southwest 380 437 26,500 2,479 Climbing Boston Center
Thu 09:43:36 AM 42.4353 -71.2514 217° Southwest 365 420 29,700 2,803 Climbing Boston Center
Thu 09:44:38 AM 42.3633 -71.3278 218° Southwest 337 388 32,200 2,293 Climbing Boston Center
Thu 09:45:39 AM 42.2828 -71.4119 218° Southwest 317 365 34,400 1,854 Climbing Boston Center
Thu 09:46:41 AM 42.2142 -71.4814 217° Southwest 310 357 36,000 780 Climbing Boston Center
Thu 09:47:42 AM 42.1492 -71.5494 218° Southwest 299 344 36,000  Level Boston Center
Thu 09:48:42 AM 42.0831 -71.6181 218° Southwest 299 344 36,000  Level Boston Center
Thu 09:49:44 AM 42.0158 -71.6856 217° Southwest 301 346 36,000 634 Level Boston Center
Thu 09:50:45 AM 41.9503 -71.7519 217° Southwest 297 342 37,300 992 Climbing Boston Center
Thu 09:51:45 AM 41.8872 -71.8172 218° Southwest 289 333 38,000 347 Climbing Boston Center
Thu 09:52:46 AM 41.8239 -71.8819 217° Southwest 287 330 38,000  Level Boston Center
Thu 09:53:47 AM 41.7592 -71.9461 216° Southwest 289 333 38,000  Level Boston Center
Thu 09:54:48 AM 41.6947 -72.0131 218° Southwest 291 335 38,000  Level Boston Center
Thu 09:55:47 AM 41.6294 -72.0792 217° Southwest 293 337 38,000  Level Boston Center
Thu 09:56:48 AM 41.5642 -72.1450 217° Southwest 294 338 38,000  Level Boston Center
Thu 09:57:49 AM 41.4931 -72.2164 217° Southwest 292 336 38,000  Level Boston Center
Thu 09:58:51 AM 41.4286 -72.2822 217° Southwest 292 336 38,000  Level Boston Center
Thu 09:59:52 AM 41.3636 -72.3469 217° Southwest 293 337 38,000  Level Boston Center
Thu 10:00:50 AM 41.2992 -72.4114 217° Southwest 290 334 38,000  Level Boston Center
Thu 10:01:53 AM 41.2278 -72.4833 217° Southwest 291 335 38,000  Level Boston Center
Thu 10:02:54 AM 41.1633 -72.5461 216° Southwest 288 331 38,000  Level Boston Center
Thu 10:03:55 AM 41.0992 -72.6108 217° Southwest 290 334 38,000  Level Boston Center
Thu 10:04:55 AM 41.0344 -72.6739 216° Southwest 288 331 38,000  Level Boston Center
Thu 10:05:57 AM 40.9706 -72.7372 217° Southwest 289 333 38,000  Level Boston Center
Thu 10:06:57 AM 40.9047 -72.8000 216° Southwest 290 334 38,000  Level Boston Center
Thu 10:07:57 AM 40.8414 -72.8672 219° Southwest 291 335 38,000  Level Boston Center
Thu 10:08:58 AM 40.7764 -72.9272 215° Southwest 288 331 38,000  Level Boston Center
Thu 10:10:00 AM 40.7086 -72.9978 218° Southwest 290 334 38,000  Level Boston Center
Thu 10:11:00 AM 40.6442 -73.0603 216° Southwest 289 333 38,000  Level Boston Center
Thu 10:12:01 AM 40.5797 -73.1225 216° Southwest 288 331 38,000  Level Boston Center
Thu 10:13:03 AM 40.5156 -73.1847 216° Southwest 287 330 38,000  Level Boston Center
Thu 10:14:03 AM 40.4500 -73.2469 216° Southwest 290 334 38,000  Level Boston Center
Thu 10:15:02 AM 40.3847 -73.3097 216° Southwest 290 334 38,000  Level Boston Center
Thu 10:16:02 AM 40.3194 -73.3722 216° Southwest 291 335 38,000  Level Boston Center
Thu 10:17:06 AM 40.2542 -73.4356 217° Southwest 292 336 38,000  Level Boston Center
Thu 10:18:06 AM 40.1814 -73.5056 216° Southwest 292 336 38,000  Level Boston Center
Thu 10:19:06 AM 40.1172 -73.5686 217° Southwest 291 335 38,000  Level Boston Center
Thu 10:19:44 AM 40.0803 -73.6042 216° Southwest 293 337 38,000  Level Washington Center
Thu 10:20:42 AM 40.0147 -73.6656 216° Southwest 293 337 38,000  Level Washington Center
Thu 10:21:43 AM 39.9469 -73.7269 215° Southwest 293 337 38,000  Level Washington Center
Thu 10:22:43 AM 39.8811 -73.7936 218° Southwest 298 343 38,000  Level Washington Center
Thu 10:23:44 AM 39.8133 -73.8547 215° Southwest 298 343 38,000  Level Washington Center
Thu 10:24:42 AM 39.7456 -73.9211 217° Southwest 303 349 38,000  Level Washington Center
Thu 10:25:44 AM 39.6797 -73.9819 215° Southwest 303 349 38,000  Level Washington Center
Thu 10:26:42 AM 39.6097 -74.0456 215° Southwest 309 356 38,000  Level Washington Center
Thu 10:27:42 AM 39.5439 -74.1089 217° Southwest 309 356 38,000  Level Washington Center
Thu 10:28:44 AM 39.4758 -74.1719 216° Southwest 309 356 38,000  Level Washington Center
Thu 10:29:42 AM 39.4078 -74.2353 216° Southwest 309 356 38,000  Level Washington Center
Thu 10:30:43 AM 39.3419 -74.2981 216° Southwest 309 356 38,000  Level Washington Center
Thu 10:32:18 AM 39.2353 -74.3972 216° Southwest 301 346 38,000  Level Boston Center
Thu 10:33:42 AM 39.1394 -74.4864 216° Southwest 309 356 38,000  Level Washington Center
Thu 10:34:42 AM 39.0714 -74.5542 218° Southwest 309 356 38,000  Level Washington Center
Thu 10:35:43 AM 39.0008 -74.6139 213° Southwest 310 357 38,000  Level Washington Center
Thu 10:36:44 AM 38.9306 -74.6792 216° Southwest 310 357 38,000  Level Washington Center
Thu 10:37:44 AM 38.8603 -74.7439 216° Southwest 310 357 38,000  Level Washington Center
Thu 10:38:45 AM 38.7897 -74.8061 215° Southwest 310 357 38,000  Level Washington Center
Thu 10:39:42 AM 38.7192 -74.8706 215° Southwest 310 357 38,000  Level Washington Center
Thu 10:40:44 AM 38.6486 -74.9297 213° Southwest 310 357 38,000  Level Washington Center
Thu 10:41:42 AM 38.5803 -74.9967 217° Southwest 310 357 38,000  Level Washington Center
Thu 10:42:43 AM 38.5097 -75.0611 216° Southwest 310 357 38,000  Level Washington Center
Thu 10:43:42 AM 38.4369 -75.1253 215° Southwest 310 357 38,000  Level Washington Center
Thu 10:44:43 AM 38.3683 -75.1867 215° Southwest 310 357 38,000  Level Washington Center
Thu 10:45:44 AM 38.2956 -75.2558 217° Southwest 310 357 38,000  Level Washington Center
Thu 10:46:44 AM 38.2250 -75.3169 214° Southwest 310 357 38,000  Level Washington Center
Thu 10:47:42 AM 38.1478 -75.3753 211° Southwest 315 362 38,000  Level Washington Center
Thu 10:48:43 AM 38.0708 -75.4256 207° Southwest 315 362 38,000  Level Washington Center
Thu 10:49:44 AM 37.9917 -75.4783 208° Southwest 315 362 38,000  Level Washington Center
Thu 10:50:42 AM 37.9144 -75.5364 211° Southwest 320 368 38,000  Level Washington Center
Thu 10:51:42 AM 37.8372 -75.5892 208° Southwest 320 368 38,000  Level Washington Center
Thu 10:52:43 AM 37.7581 -75.6444 209° Southwest 325 374 38,000  Level Washington Center
Thu 10:53:44 AM 37.6789 -75.6994 209° Southwest 325 374 38,000  Level Washington Center
Thu 10:54:45 AM 37.5994 -75.7544 209° Southwest 330 380 38,000  Level Washington Center
Thu 10:55:43 AM 37.5203 -75.8092 209° Southwest 330 380 38,000  Level Washington Center
Thu 10:56:43 AM 37.4408 -75.8614 208° Southwest 330 380 38,000  Level Washington Center
Thu 10:57:44 AM 37.3594 -75.9158 208° Southwest 330 380 38,000  Level Washington Center
Thu 10:58:44 AM 37.2800 -75.9703 209° Southwest 330 380 38,000  Level Washington Center
Thu 10:59:43 AM 37.2006 -76.0247 209° Southwest 330 380 38,000  Level Washington Center
Thu 11:00:44 AM 37.1211 -76.0789 209° Southwest 330 380 38,000  Level Washington Center
Thu 11:01:42 AM 37.0436 -76.1331 209° Southwest 330 380 38,000  Level Washington Center
Thu 11:02:43 AM 36.9514 -76.1869 205° Southwest 330 380 38,000  Level Washington Center
Thu 11:03:44 AM 36.8719 -76.2411 209° Southwest 330 380 38,000  Level Washington Center
Thu 11:04:42 AM 36.7925 -76.2947 208° Southwest 330 380 38,000  Level Washington Center
Thu 11:05:42 AM 36.7108 -76.3483 208° Southwest 330 380 38,000  Level Washington Center
Thu 11:06:43 AM 36.6311 -76.4072 211° Southwest 330 380 38,000  Level Washington Center
Thu 11:07:44 AM 36.5492 -76.4606 208° Southwest 330 380 38,000  Level Washington Center
Thu 11:08:44 AM 36.4656 -76.5139 207° Southwest 330 380 38,000  Level Washington Center
Thu 11:09:45 AM 36.3817 -76.5722 209° Southwest 330 380 38,000  Level Washington Center
Thu 11:10:42 AM 36.2997 -76.6256 208° Southwest 330 380 38,000  Level Washington Center
Thu 11:11:43 AM 36.2136 -76.6783 206° Southwest 330 380 38,000  Level Washington Center
Thu 11:12:44 AM 36.1297 -76.7339 208° Southwest 335 386 38,000  Level Washington Center
Thu 11:13:42 AM 36.0436 -76.7892 207° Southwest 340 391 38,000  Level Washington Center
Thu 11:14:43 AM 35.9597 -76.8469 209° Southwest 345 397 38,000  Level Washington Center
Thu 11:15:44 AM 35.8714 -76.9019 207° Southwest 350 403 38,000  Level Washington Center
Thu 11:16:44 AM 35.7853 -76.9542 206° Southwest 350 403 38,000  Level Washington Center
Thu 11:17:44 AM 35.6889 -76.9908 197° South 355 409 38,000  Level Washington Center
Thu 11:18:44 AM 35.6072 -77.0253 199° South 355 409 38,000  Level Washington Center
Thu 11:19:42 AM 35.5147 -77.0619 198° South 355 409 38,000  Level Washington Center
Thu 11:20:43 AM 35.4206 -77.1008 199° South 355 409 38,000  Level Washington Center
Thu 11:21:42 AM 35.3281 -77.1375 198° South 355 409 38,000  Level Washington Center
Thu 11:22:42 AM 35.2275 -77.1786 198° South 350 403 38,000  Level Washington Center
Thu 11:23:44 AM 35.1331 -77.2150 197° South 350 403 38,000  Level Washington Center
Thu 11:24:44 AM 35.0386 -77.2511 197° South 350 403 38,000  Level Washington Center
Thu 11:25:42 AM 34.9464 -77.2922 200° South 355 409 38,000  Level Washington Center
Thu 11:26:42 AM 34.8519 -77.3283 197° South 355 409 38,000  Level Washington Center
Thu 11:27:43 AM 34.7575 -77.3692 200° South 355 409 38,000  Level Washington Center
Thu 11:28:43 AM 34.6650 -77.4025 197° South 355 409 38,000  Level Washington Center
Thu 11:29:43 AM 34.5706 -77.4433 200° South 355 409 38,000  Level Washington Center
Thu 11:30:44 AM 34.4761 -77.4792 197° South 355 409 38,000  Level Washington Center
Thu 11:32:37 AM 34.3050 -77.5461 198° South 360 414 38,000  Level Jacksonville Center
Thu 11:33:37 AM 34.2067 -77.5825 197° South 360 414 38,000  Level Jacksonville Center
Thu 11:34:37 AM 34.1058 -77.6211 198° South 371 427 38,000  Level Jacksonville Center
Thu 11:35:37 AM 34.0072 -77.6569 197° South 377 434 38,000  Level Jacksonville Center
Thu 11:36:37 AM 33.9089 -77.6981 199° South 377 434 38,000  Level Jacksonville Center
Thu 11:37:37 AM 33.8083 -77.7364 198° South 377 434 38,000  Level Jacksonville Center
Thu 11:38:37 AM 33.7117 -77.7719 197° South 377 434 38,000  Level Jacksonville Center
Thu 11:39:36 AM 33.6131 -77.8128 199° South 377 434 38,000  Level Jacksonville Center
Thu 11:40:37 AM 33.5167 -77.8506 198° South 377 434 38,000  Level Jacksonville Center
Thu 11:41:37 AM 33.4178 -77.8861 197° South 377 434 38,000  Level Jacksonville Center
Thu 11:42:37 AM 33.3192 -77.9239 198° South 377 434 38,000  Level Jacksonville Center
Thu 11:43:37 AM 33.2203 -77.9592 197° South 377 434 38,000  Level Jacksonville Center
Thu 11:44:37 AM 33.1217 -77.9994 199° South 377 434 38,000  Level Jacksonville Center
Thu 11:45:37 AM 33.0231 -78.0344 197° South 377 434 38,000  Level Jacksonville Center
Thu 11:46:37 AM 32.9242 -78.0719 198° South 377 434 38,000  Level Jacksonville Center
Thu 11:47:37 AM 32.8236 -78.1119 198° South 377 434 38,000  Level Jacksonville Center
Thu 11:48:37 AM 32.7247 -78.1469 197° South 377 434 38,000  Level Jacksonville Center
Thu 11:49:37 AM 32.6258 -78.1842 198° South 377 434 38,000  Level Jacksonville Center
Thu 11:50:36 AM 32.5292 -78.2236 199° South 377 434 38,000  Level Jacksonville Center
Thu 11:51:37 AM 32.4325 -78.2606 198° South 377 434 38,000  Level Jacksonville Center
Thu 11:52:37 AM 32.3317 -78.2975 197° South 377 434 38,000  Level Jacksonville Center
Thu 11:53:37 AM 32.2328 -78.3369 199° South 377 434 38,000  Level Jacksonville Center
Thu 11:54:37 AM 32.1339 -78.3714 196° South 377 434 38,000  Level Jacksonville Center
Thu 11:55:36 AM 32.0369 -78.4081 198° South 370 426 38,000  Level Jacksonville Center
Thu 11:56:37 AM 31.9361 -78.4472 198° South 381 438 38,000  Level Jacksonville Center
Thu 11:57:36 AM 31.8372 -78.4836 197° South 376 433 38,000  Level Jacksonville Center
Thu 11:58:37 AM 31.7383 -78.5203 198° South 382 440 38,000  Level Jacksonville Center
Thu 11:59:37 AM 31.6372 -78.5567 197° South 377 434 38,000  Level Jacksonville Center
Thu 12:00:37 PM 31.5403 -78.5928 198° South 377 434 38,000  Level Jacksonville Center
Thu 12:01:37 PM 31.4414 -78.6314 198° South 372 428 38,000  Level Jacksonville Center
Thu 12:02:37 PM 31.3444 -78.6650 196° South 372 428 38,000  Level Jacksonville Center
Thu 12:03:37 PM 31.2475 -78.6986 197° South 377 434 38,000  Level Jacksonville Center
Thu 12:04:37 PM 31.1506 -78.7344 198° South 377 434 38,000  Level Jacksonville Center
Thu 12:05:37 PM 31.0536 -78.7703 198° South 377 434 38,000  Level Jacksonville Center
Thu 12:06:36 PM 30.9567 -78.8036 196° South 377 434 38,000  Level Jacksonville Center
Thu 12:07:37 PM 30.8575 -78.8394 197° South 377 434 38,000  Level Jacksonville Center
Thu 12:08:37 PM 30.7583 -78.8750 197° South 372 428 38,000  Level Jacksonville Center
Thu 12:09:37 PM 30.6531 -78.9108 196° South 382 440 38,000  Level Jacksonville Center
Thu 12:10:47 PM 30.5400 -78.9506 197° South 368 423 38,000  Level Miami Center
Thu 12:11:47 PM 30.4436 -78.9869 198° South 368 423 38,000  Level Miami Center
Thu 12:12:47 PM 30.3431 -79.0306 201° Southwest 379 436 38,000  Level Miami Center
Thu 12:13:47 PM 30.2422 -79.0717 199° South 386 444 38,000  Level Miami Center
Thu 12:14:47 PM 30.1500 -79.1156 202° Southwest 386 444 38,000 -100 Level Miami Center
Thu 12:15:47 PM 30.0450 -79.1589 200° South 386 444 37,800 -550 Descending Miami Center
Thu 12:16:47 PM 29.9461 -79.2069 203° Southwest 386 444 36,900 -900 Descending Miami Center
Thu 12:17:47 PM 29.8475 -79.2525 202° Southwest 392 451 36,000 -450 Descending Miami Center
Thu 12:18:47 PM 29.7486 -79.3006 203° Southwest 392 451 36,000  Level Miami Center
Thu 12:19:47 PM 29.6417 -79.3389 197° South 392 451 36,000  Level Miami Center
Thu 12:20:47 PM 29.5389 -79.3769 198° South 392 451 36,000  Level Miami Center
Thu 12:21:47 PM 29.4481 -79.4322 208° Southwest 386 444 36,000 -400 Level Miami Center
Thu 12:22:47 PM 29.3411 -79.4678 196° South 386 444 35,200 -1,450 Descending Miami Center
Thu 12:23:47 PM 29.2422 -79.5081 200° South 386 444 33,100 -2,000 Descending Miami Center
Thu 12:24:47 PM 29.1475 -79.5511 202° Southwest 386 444 31,200 -1,900 Descending Miami Center
Thu 12:25:47 PM 29.0756 -79.6181 219° Southwest 352 405 29,300 -1,900 Descending Miami Center
Thu 12:26:47 PM 29.0483 -79.7219 253° West 328 377 27,400 -1,900 Descending Miami Center
Thu 12:27:47 PM 29.0172 -79.8183 250° West 328 377 25,500 -1,850 Descending Miami Center
Thu 12:28:47 PM 28.9900 -79.9172 253° West 328 377 23,700 -1,750 Descending Miami Center
Thu 12:29:47 PM 28.9589 -80.0067 248° West 322 371 22,000 -1,650 Descending Miami Center
Thu 12:30:47 PM 28.9339 -80.0936 252° West 310 357 20,400 -1,600 Descending Miami Center
Thu 12:32:47 PM 28.8822 -80.2581 250° West 286 329 17,200 -1,695 Descending Miami Center
Thu 12:34:30 PM 28.8333 -80.4000 249° West 278 320 14,100 -1,178 Descending Orlando TRACON
Thu 12:35:30 PM 28.8167 -80.5000 259° West 286 329 14,000 -250 Descending Orlando TRACON
Thu 12:36:30 PM 28.8167 -80.5833 270° West 281 323 13,600 -783 Descending Orlando TRACON
Thu 12:37:25 PM 28.8000 -80.6667 257° West 279 321 12,500 -1,096 Descending Orlando TRACON
Thu 12:38:25 PM 28.7833 -80.7500 257° West 277 319 11,500 -1,050 Descending Orlando TRACON
Thu 12:39:25 PM 28.7667 -80.8333 257° West 273 314 10,400 -850 Descending Orlando TRACON
Thu 12:40:25 PM 28.7667 -80.9167 270° West 250 288 9,800 -850 Descending Orlando TRACON
Thu 12:41:25 PM 28.7500 -80.9833 254° West 247 284 8,700 -1,339 Descending Orlando TRACON
Thu 12:42:26 PM 28.7333 -81.0667 257° West 247 284 7,100 -1,537 Descending Orlando TRACON
Thu 12:43:26 PM 28.7167 -81.1333 254° West 236 272 5,600 -1,600 Descending Orlando TRACON
Thu 12:44:26 PM 28.6833 -81.2000 240° Southwest 228 262 3,900 -1,300 Descending Orlando TRACON
Thu 12:45:26 PM 28.6333 -81.2500 221° Southwest 230 265 3,000 -450 Descending Orlando TRACON
Thu 12:46:26 PM 28.5833 -81.2833 210° Southwest 161 185 3,000 -400 Level Orlando TRACON
Thu 12:47:26 PM 28.5500 -81.2833 180° South 155 178 2,200 -800 Descending Orlando TRACON
Thu 12:48:26 PM 28.5167 -81.2833 180° South 139 160 1,400 -744 Descending Orlando TRACON
Thu 12:49:27 PM 28.4667 -81.2833 180° South 124 143 700 -689 Descending Orlando TRACON

Login

Don't have an account? Register now (free) for customized features, flight alerts, and more!